sensor_id;sensor_type;location;lat;lon;timestamp;temperature;humidity
18906;DHT22;9585;51.018;4.282;2024-03-17T00:00:04;7.60;99.90
18906;DHT22;9585;51.018;4.282;2024-03-17T00:02:33;7.50;99.90
18906;DHT22;9585;51.018;4.282;2024-03-17T00:05:01;7.50;99.90
18906;DHT22;9585;51.018;4.282;2024-03-17T00:07:30;7.50;99.90
18906;DHT22;9585;51.018;4.282;2024-03-17T00:09:58;7.50;99.90
18906;DHT22;9585;51.018;4.282;2024-03-17T00:12:25;7.50;99.90
18906;DHT22;9585;51.018;4.282;2024-03-17T00:14:53;7.50;99.90
18906;DHT22;9585;51.018;4.282;2024-03-17T00:17:23;7.40;99.90
18906;DHT22;9585;51.018;4.282;2024-03-17T00:19:52;7.50;99.90
18906;DHT22;9585;51.018;4.282;2024-03-17T00:22:23;7.50;99.90
18906;DHT22;9585;51.018;4.282;2024-03-17T00:24:51;7.50;99.90
18906;DHT22;9585;51.018;4.282;2024-03-17T00:27:20;7.50;99.90
18906;DHT22;9585;51.018;4.282;2024-03-17T00:29:48;7.50;99.90
18906;DHT22;9585;51.018;4.282;2024-03-17T00:32:14;7.50;99.90
18906;DHT22;9585;51.018;4.282;2024-03-17T00:34:44;7.60;99.90
18906;DHT22;9585;51.018;4.282;2024-03-17T00:37:12;7.60;99.90
18906;DHT22;9585;51.018;4.282;2024-03-17T00:39:40;7.60;99.90
18906;DHT22;9585;51.018;4.282;2024-03-17T00:42:06;7.70;99.90
18906;DHT22;9585;51.018;4.282;2024-03-17T00:44:34;7.70;99.90
18906;DHT22;9585;51.018;4.282;2024-03-17T00:47:01;7.70;99.90
18906;DHT22;9585;51.018;4.282;2024-03-17T00:49:33;7.60;99.90
18906;DHT22;9585;51.018;4.282;2024-03-17T00:51:59;7.70;99.90
18906;DHT22;9585;51.018;4.282;2024-03-17T00:54:29;7.70;99.90
18906;DHT22;9585;51.018;4.282;2024-03-17T00:56:56;7.70;99.90
18906;DHT22;9585;51.018;4.282;2024-03-17T00:59:24;7.60;99.90
18906;DHT22;9585;51.018;4.282;2024-03-17T01:01:51;7.60;99.90
18906;DHT22;9585;51.018;4.282;2024-03-17T01:04:19;7.60;99.90
18906;DHT22;9585;51.018;4.282;2024-03-17T01:06:46;7.70;99.90
18906;DHT22;9585;51.018;4.282;2024-03-17T01:09:14;7.70;99.90
18906;DHT22;9585;51.018;4.282;2024-03-17T01:11:42;7.70;99.90
18906;DHT22;9585;51.018;4.282;2024-03-17T01:14:09;7.70;99.90
18906;DHT22;9585;51.018;4.282;2024-03-17T01:16:36;7.70;99.90
18906;DHT22;9585;51.018;4.282;2024-03-17T01:19:04;7.70;99.90
18906;DHT22;9585;51.018;4.282;2024-03-17T01:21:31;7.60;99.90
18906;DHT22;9585;51.018;4.282;2024-03-17T01:23:58;7.60;99.90
18906;DHT22;9585;51.018;4.282;2024-03-17T01:26:25;7.50;99.90
18906;DHT22;9585;51.018;4.282;2024-03-17T01:28:56;7.50;99.90
18906;DHT22;9585;51.018;4.282;2024-03-17T01:31:22;7.40;99.90
18906;DHT22;9585;51.018;4.282;2024-03-17T01:33:51;7.40;99.90
18906;DHT22;9585;51.018;4.282;2024-03-17T01:36:18;7.40;99.90
18906;DHT22;9585;51.018;4.282;2024-03-17T01:38:45;7.40;99.90
18906;DHT22;9585;51.018;4.282;2024-03-17T01:41:12;7.30;99.90
18906;DHT22;9585;51.018;4.282;2024-03-17T01:43:40;7.30;99.90
18906;DHT22;9585;51.018;4.282;2024-03-17T01:46:12;7.30;99.90
18906;DHT22;9585;51.018;4.282;2024-03-17T01:48:40;7.30;99.90
18906;DHT22;9585;51.018;4.282;2024-03-17T01:51:08;7.30;99.90
18906;DHT22;9585;51.018;4.282;2024-03-17T01:53:37;7.30;99.90
18906;DHT22;9585;51.018;4.282;2024-03-17T01:56:05;7.30;99.90
18906;DHT22;9585;51.018;4.282;2024-03-17T01:58:33;7.30;99.90
18906;DHT22;9585;51.018;4.282;2024-03-17T02:01:01;7.40;99.90
18906;DHT22;9585;51.018;4.282;2024-03-17T02:03:32;7.50;99.90
18906;DHT22;9585;51.018;4.282;2024-03-17T02:05:59;7.60;99.90
18906;DHT22;9585;51.018;4.282;2024-03-17T02:08:27;7.60;99.90
18906;DHT22;9585;51.018;4.282;2024-03-17T02:10:54;7.70;99.90
18906;DHT22;9585;51.018;4.282;2024-03-17T02:13:22;7.70;99.90
18906;DHT22;9585;51.018;4.282;2024-03-17T02:15:49;7.80;99.90
18906;DHT22;9585;51.018;4.282;2024-03-17T02:18:16;7.80;99.90
18906;DHT22;9585;51.018;4.282;2024-03-17T02:20:45;7.70;99.90
18906;DHT22;9585;51.018;4.282;2024-03-17T02:23:28;7.80;99.90
18906;DHT22;9585;51.018;4.282;2024-03-17T02:25:55;7.70;99.90
18906;DHT22;9585;51.018;4.282;2024-03-17T02:28:23;7.80;99.90
18906;DHT22;9585;51.018;4.282;2024-03-17T02:30:49;7.80;99.90
18906;DHT22;9585;51.018;4.282;2024-03-17T02:33:17;7.90;99.90
18906;DHT22;9585;51.018;4.282;2024-03-17T02:35:44;7.90;99.90
18906;DHT22;9585;51.018;4.282;2024-03-17T02:38:15;8.00;99.90
18906;DHT22;9585;51.018;4.282;2024-03-17T02:41:05;7.90;99.90
18906;DHT22;9585;51.018;4.282;2024-03-17T02:43:32;8.00;99.90
18906;DHT22;9585;51.018;4.282;2024-03-17T02:45:59;8.00;99.90
18906;DHT22;9585;51.018;4.282;2024-03-17T02:48:30;8.10;99.90
18906;DHT22;9585;51.018;4.282;2024-03-17T02:50:58;8.20;99.90
18906;DHT22;9585;51.018;4.282;2024-03-17T02:53:26;8.20;99.90
18906;DHT22;9585;51.018;4.282;2024-03-17T02:55:53;8.30;99.90
18906;DHT22;9585;51.018;4.282;2024-03-17T02:58:23;8.30;99.90
18906;DHT22;9585;51.018;4.282;2024-03-17T03:00:51;8.30;99.90
18906;DHT22;9585;51.018;4.282;2024-03-17T03:03:19;8.30;99.90
18906;DHT22;9585;51.018;4.282;2024-03-17T03:05:47;8.10;99.90
18906;DHT22;9585;51.018;4.282;2024-03-17T03:08:16;8.00;99.90
18906;DHT22;9585;51.018;4.282;2024-03-17T03:10:44;8.00;99.90
18906;DHT22;9585;51.018;4.282;2024-03-17T03:13:12;7.90;99.90
18906;DHT22;9585;51.018;4.282;2024-03-17T03:15:42;8.00;99.90
18906;DHT22;9585;51.018;4.282;2024-03-17T03:18:10;8.00;99.90
18906;DHT22;9585;51.018;4.282;2024-03-17T03:20:37;8.10;99.90
18906;DHT22;9585;51.018;4.282;2024-03-17T03:23:05;8.10;99.90
18906;DHT22;9585;51.018;4.282;2024-03-17T03:25:33;8.00;99.90
18906;DHT22;9585;51.018;4.282;2024-03-17T03:28:01;7.90;99.90
18906;DHT22;9585;51.018;4.282;2024-03-17T03:30:29;7.90;99.90
18906;DHT22;9585;51.018;4.282;2024-03-17T03:32:59;7.90;99.90
18906;DHT22;9585;51.018;4.282;2024-03-17T03:35:28;7.90;99.90
18906;DHT22;9585;51.018;4.282;2024-03-17T03:37:56;7.90;99.90
18906;DHT22;9585;51.018;4.282;2024-03-17T03:40:23;7.80;99.90
18906;DHT22;9585;51.018;4.282;2024-03-17T03:42:53;7.80;99.90
18906;DHT22;9585;51.018;4.282;2024-03-17T03:45:22;7.80;99.90
18906;DHT22;9585;51.018;4.282;2024-03-17T03:47:51;7.90;99.90
18906;DHT22;9585;51.018;4.282;2024-03-17T03:50:22;7.90;99.90
18906;DHT22;9585;51.018;4.282;2024-03-17T03:52:50;7.90;99.90
18906;DHT22;9585;51.018;4.282;2024-03-17T03:55:19;7.80;99.90
18906;DHT22;9585;51.018;4.282;2024-03-17T03:57:47;7.70;99.90
18906;DHT22;9585;51.018;4.282;2024-03-17T04:00:18;7.60;99.90
18906;DHT22;9585;51.018;4.282;2024-03-17T04:02:48;7.50;99.90
18906;DHT22;9585;51.018;4.282;2024-03-17T04:05:16;7.50;99.90
18906;DHT22;9585;51.018;4.282;2024-03-17T04:07:46;7.40;99.90
18906;DHT22;9585;51.018;4.282;2024-03-17T04:10:15;7.50;99.90
18906;DHT22;9585;51.018;4.282;2024-03-17T04:12:44;7.50;99.90
18906;DHT22;9585;51.018;4.282;2024-03-17T04:15:12;7.50;99.90
18906;DHT22;9585;51.018;4.282;2024-03-17T04:17:40;7.50;99.90
18906;DHT22;9585;51.018;4.282;2024-03-17T04:20:08;7.40;99.90
18906;DHT22;9585;51.018;4.282;2024-03-17T04:22:40;7.40;99.90
18906;DHT22;9585;51.018;4.282;2024-03-17T04:25:10;7.30;99.90
18906;DHT22;9585;51.018;4.282;2024-03-17T04:27:39;7.20;99.90
18906;DHT22;9585;51.018;4.282;2024-03-17T04:30:07;7.10;99.90
18906;DHT22;9585;51.018;4.282;2024-03-17T04:32:37;7.10;99.90
18906;DHT22;9585;51.018;4.282;2024-03-17T04:35:07;7.10;99.90
18906;DHT22;9585;51.018;4.282;2024-03-17T04:37:35;7.00;99.90
18906;DHT22;9585;51.018;4.282;2024-03-17T04:40:06;7.00;99.90
18906;DHT22;9585;51.018;4.282;2024-03-17T04:42:37;6.90;99.90
18906;DHT22;9585;51.018;4.282;2024-03-17T04:45:07;6.90;99.90
18906;DHT22;9585;51.018;4.282;2024-03-17T04:47:37;6.90;99.90
18906;DHT22;9585;51.018;4.282;2024-03-17T04:50:05;6.90;99.90
18906;DHT22;9585;51.018;4.282;2024-03-17T04:52:33;6.90;99.90
18906;DHT22;9585;51.018;4.282;2024-03-17T04:55:01;6.90;99.90
18906;DHT22;9585;51.018;4.282;2024-03-17T04:57:29;6.90;99.90
18906;DHT22;9585;51.018;4.282;2024-03-17T04:59:59;6.80;99.90
18906;DHT22;9585;51.018;4.282;2024-03-17T05:02:27;6.80;99.90
18906;DHT22;9585;51.018;4.282;2024-03-17T05:04:54;6.70;99.90
18906;DHT22;9585;51.018;4.282;2024-03-17T05:07:22;6.80;99.90
18906;DHT22;9585;51.018;4.282;2024-03-17T05:09:50;6.80;99.90
18906;DHT22;9585;51.018;4.282;2024-03-17T05:12:17;6.80;99.90
18906;DHT22;9585;51.018;4.282;2024-03-17T05:14:45;6.80;99.90
18906;DHT22;9585;51.018;4.282;2024-03-17T05:17:14;6.80;99.90
18906;DHT22;9585;51.018;4.282;2024-03-17T05:19:42;6.80;99.90
18906;DHT22;9585;51.018;4.282;2024-03-17T05:22:09;6.70;99.90
18906;DHT22;9585;51.018;4.282;2024-03-17T05:24:37;6.70;99.90
18906;DHT22;9585;51.018;4.282;2024-03-17T05:27:05;6.80;99.90
18906;DHT22;9585;51.018;4.282;2024-03-17T05:29:33;6.80;99.90
18906;DHT22;9585;51.018;4.282;2024-03-17T05:32:04;6.90;99.90
18906;DHT22;9585;51.018;4.282;2024-03-17T05:34:33;7.00;99.90
18906;DHT22;9585;51.018;4.282;2024-03-17T05:37:00;7.00;99.90
18906;DHT22;9585;51.018;4.282;2024-03-17T05:39:28;7.00;99.90
18906;DHT22;9585;51.018;4.282;2024-03-17T05:41:56;6.90;99.90
18906;DHT22;9585;51.018;4.282;2024-03-17T05:44:23;6.90;99.90
18906;DHT22;9585;51.018;4.282;2024-03-17T05:46:51;7.00;99.90
18906;DHT22;9585;51.018;4.282;2024-03-17T05:49:19;7.00;99.90
18906;DHT22;9585;51.018;4.282;2024-03-17T05:51:49;7.00;99.90
18906;DHT22;9585;51.018;4.282;2024-03-17T05:54:16;7.00;99.90
18906;DHT22;9585;51.018;4.282;2024-03-17T05:56:44;7.10;99.90
18906;DHT22;9585;51.018;4.282;2024-03-17T05:59:11;7.10;99.90
18906;DHT22;9585;51.018;4.282;2024-03-17T06:01:39;7.10;99.90
18906;DHT22;9585;51.018;4.282;2024-03-17T06:04:07;7.10;99.90
18906;DHT22;9585;51.018;4.282;2024-03-17T06:06:35;7.20;99.90
18906;DHT22;9585;51.018;4.282;2024-03-17T06:09:04;7.20;99.90
18906;DHT22;9585;51.018;4.282;2024-03-17T06:11:34;7.30;99.90
18906;DHT22;9585;51.018;4.282;2024-03-17T06:14:02;7.30;99.90
18906;DHT22;9585;51.018;4.282;2024-03-17T06:16:32;7.40;99.90
18906;DHT22;9585;51.018;4.282;2024-03-17T06:18:59;7.40;99.90
18906;DHT22;9585;51.018;4.282;2024-03-17T06:21:27;7.50;99.90
18906;DHT22;9585;51.018;4.282;2024-03-17T06:23:55;7.70;99.90
18906;DHT22;9585;51.018;4.282;2024-03-17T06:26:24;8.30;99.90
18906;DHT22;9585;51.018;4.282;2024-03-17T06:28:52;8.40;99.90
18906;DHT22;9585;51.018;4.282;2024-03-17T06:31:20;8.40;99.90
18906;DHT22;9585;51.018;4.282;2024-03-17T06:33:48;8.20;99.90
18906;DHT22;9585;51.018;4.282;2024-03-17T06:36:16;8.10;99.90
18906;DHT22;9585;51.018;4.282;2024-03-17T06:38:44;7.90;99.90
18906;DHT22;9585;51.018;4.282;2024-03-17T06:41:11;7.90;99.90
18906;DHT22;9585;51.018;4.282;2024-03-17T06:43:42;7.90;99.90
18906;DHT22;9585;51.018;4.282;2024-03-17T06:46:10;8.00;99.90
18906;DHT22;9585;51.018;4.282;2024-03-17T06:48:38;8.00;99.90
18906;DHT22;9585;51.018;4.282;2024-03-17T06:51:06;8.20;99.90
18906;DHT22;9585;51.018;4.282;2024-03-17T06:53:35;8.30;99.90
18906;DHT22;9585;51.018;4.282;2024-03-17T06:56:03;8.40;99.90
18906;DHT22;9585;51.018;4.282;2024-03-17T06:58:31;8.40;99.90
18906;DHT22;9585;51.018;4.282;2024-03-17T07:01:01;8.40;99.90
18906;DHT22;9585;51.018;4.282;2024-03-17T07:03:30;8.40;99.90
18906;DHT22;9585;51.018;4.282;2024-03-17T07:05:59;8.40;99.90
18906;DHT22;9585;51.018;4.282;2024-03-17T07:08:28;8.50;99.90
18906;DHT22;9585;51.018;4.282;2024-03-17T07:10:58;8.60;99.90
18906;DHT22;9585;51.018;4.282;2024-03-17T07:13:25;8.60;99.90
18906;DHT22;9585;51.018;4.282;2024-03-17T07:15:53;8.60;99.90
18906;DHT22;9585;51.018;4.282;2024-03-17T07:18:40;8.70;99.90
18906;DHT22;9585;51.018;4.282;2024-03-17T07:21:10;8.80;99.90
18906;DHT22;9585;51.018;4.282;2024-03-17T07:23:37;8.90;99.90
18906;DHT22;9585;51.018;4.282;2024-03-17T07:26:05;9.10;99.90
18906;DHT22;9585;51.018;4.282;2024-03-17T07:28:33;9.20;99.90
18906;DHT22;9585;51.018;4.282;2024-03-17T07:31:01;9.40;99.90
18906;DHT22;9585;51.018;4.282;2024-03-17T07:33:29;9.50;99.90
18906;DHT22;9585;51.018;4.282;2024-03-17T07:35:59;9.70;99.90
18906;DHT22;9585;51.018;4.282;2024-03-17T07:38:29;9.70;99.90
18906;DHT22;9585;51.018;4.282;2024-03-17T07:40:58;9.90;99.90
18906;DHT22;9585;51.018;4.282;2024-03-17T07:43:27;10.00;99.90
18906;DHT22;9585;51.018;4.282;2024-03-17T07:45:59;10.10;99.90
18906;DHT22;9585;51.018;4.282;2024-03-17T07:48:27;10.30;99.90
18906;DHT22;9585;51.018;4.282;2024-03-17T07:50:57;10.40;99.90
18906;DHT22;9585;51.018;4.282;2024-03-17T07:53:27;10.50;99.90
18906;DHT22;9585;51.018;4.282;2024-03-17T07:56:00;10.60;99.90
18906;DHT22;9585;51.018;4.282;2024-03-17T07:58:30;10.70;99.90
18906;DHT22;9585;51.018;4.282;2024-03-17T08:00:59;10.80;99.90
18906;DHT22;9585;51.018;4.282;2024-03-17T08:03:28;10.70;99.90
18906;DHT22;9585;51.018;4.282;2024-03-17T08:05:57;10.90;99.90
18906;DHT22;9585;51.018;4.282;2024-03-17T08:08:29;11.10;99.90
18906;DHT22;9585;51.018;4.282;2024-03-17T08:13:57;11.50;99.90
18906;DHT22;9585;51.018;4.282;2024-03-17T08:16:28;11.80;99.90
18906;DHT22;9585;51.018;4.282;2024-03-17T08:18:56;12.20;99.90
18906;DHT22;9585;51.018;4.282;2024-03-17T08:21:23;12.50;99.90
18906;DHT22;9585;51.018;4.282;2024-03-17T08:23:58;12.60;99.90
18906;DHT22;9585;51.018;4.282;2024-03-17T08:26:30;12.70;99.90
18906;DHT22;9585;51.018;4.282;2024-03-17T08:29:01;12.70;99.90
18906;DHT22;9585;51.018;4.282;2024-03-17T08:31:30;12.70;99.90
18906;DHT22;9585;51.018;4.282;2024-03-17T08:33:58;12.80;99.90
18906;DHT22;9585;51.018;4.282;2024-03-17T08:36:26;13.00;99.90
18906;DHT22;9585;51.018;4.282;2024-03-17T08:38:54;13.10;99.90
18906;DHT22;9585;51.018;4.282;2024-03-17T08:43:50;13.00;99.90
18906;DHT22;9585;51.018;4.282;2024-03-17T08:46:18;13.00;99.90
18906;DHT22;9585;51.018;4.282;2024-03-17T08:48:49;13.10;99.90
18906;DHT22;9585;51.018;4.282;2024-03-17T08:51:19;13.20;99.90
18906;DHT22;9585;51.018;4.282;2024-03-17T08:53:53;13.40;99.90
18906;DHT22;9585;51.018;4.282;2024-03-17T08:56:20;13.60;99.90
18906;DHT22;9585;51.018;4.282;2024-03-17T08:58:50;13.80;99.90
18906;DHT22;9585;51.018;4.282;2024-03-17T09:01:56;13.80;99.90
18906;DHT22;9585;51.018;4.282;2024-03-17T09:04:30;13.90;99.90
18906;DHT22;9585;51.018;4.282;2024-03-17T09:28:01;13.00;99.90
18906;DHT22;9585;51.018;4.282;2024-03-17T09:30:29;13.00;99.90
18906;DHT22;9585;51.018;4.282;2024-03-17T09:32:56;12.90;99.90
18906;DHT22;9585;51.018;4.282;2024-03-17T09:35:24;12.80;99.90
18906;DHT22;9585;51.018;4.282;2024-03-17T09:37:52;12.60;99.90
18906;DHT22;9585;51.018;4.282;2024-03-17T09:40:22;12.50;99.90
18906;DHT22;9585;51.018;4.282;2024-03-17T09:43:00;12.50;99.90
18906;DHT22;9585;51.018;4.282;2024-03-17T09:45:42;12.40;99.90
18906;DHT22;9585;51.018;4.282;2024-03-17T09:48:17;12.30;99.90
18906;DHT22;9585;51.018;4.282;2024-03-17T09:50:51;12.30;99.90
18906;DHT22;9585;51.018;4.282;2024-03-17T09:53:24;12.30;99.90
18906;DHT22;9585;51.018;4.282;2024-03-17T09:55:57;12.20;99.90
18906;DHT22;9585;51.018;4.282;2024-03-17T09:58:25;12.40;99.90
18906;DHT22;9585;51.018;4.282;2024-03-17T10:00:57;12.40;99.90
18906;DHT22;9585;51.018;4.282;2024-03-17T10:03:41;12.70;99.90
18906;DHT22;9585;51.018;4.282;2024-03-17T10:06:12;12.80;99.90
18906;DHT22;9585;51.018;4.282;2024-03-17T10:08:44;13.00;99.90
18906;DHT22;9585;51.018;4.282;2024-03-17T10:11:12;13.10;99.90
18906;DHT22;9585;51.018;4.282;2024-03-17T10:13:41;13.30;99.90
18906;DHT22;9585;51.018;4.282;2024-03-17T10:16:23;13.50;99.90
18906;DHT22;9585;51.018;4.282;2024-03-17T10:18:51;13.60;99.90
18906;DHT22;9585;51.018;4.282;2024-03-17T10:21:33;13.70;99.90
18906;DHT22;9585;51.018;4.282;2024-03-17T10:24:11;13.80;99.90
18906;DHT22;9585;51.018;4.282;2024-03-17T10:26:43;13.80;99.90
18906;DHT22;9585;51.018;4.282;2024-03-17T10:29:22;13.90;99.90
18906;DHT22;9585;51.018;4.282;2024-03-17T10:31:53;14.00;99.90
18906;DHT22;9585;51.018;4.282;2024-03-17T10:34:22;14.30;99.90
18906;DHT22;9585;51.018;4.282;2024-03-17T10:36:52;14.50;99.90
18906;DHT22;9585;51.018;4.282;2024-03-17T10:39:27;14.60;99.90
18906;DHT22;9585;51.018;4.282;2024-03-17T10:42:02;14.80;99.90
18906;DHT22;9585;51.018;4.282;2024-03-17T10:44:47;14.80;99.90
18906;DHT22;9585;51.018;4.282;2024-03-17T10:47:37;14.80;99.90
18906;DHT22;9585;51.018;4.282;2024-03-17T10:50:12;14.80;99.90
18906;DHT22;9585;51.018;4.282;2024-03-17T10:53:07;14.70;99.90
18906;DHT22;9585;51.018;4.282;2024-03-17T10:55:51;14.80;99.90
18906;DHT22;9585;51.018;4.282;2024-03-17T11:01:16;14.80;99.90
18906;DHT22;9585;51.018;4.282;2024-03-17T11:04:04;14.80;99.90
18906;DHT22;9585;51.018;4.282;2024-03-17T11:06:49;14.80;99.90
18906;DHT22;9585;51.018;4.282;2024-03-17T11:09:41;14.50;99.90
18906;DHT22;9585;51.018;4.282;2024-03-17T11:12:42;14.60;99.90
18906;DHT22;9585;51.018;4.282;2024-03-17T11:15:38;14.80;99.90
18906;DHT22;9585;51.018;4.282;2024-03-17T11:18:28;15.00;99.90
18906;DHT22;9585;51.018;4.282;2024-03-17T11:21:19;15.20;99.90
18906;DHT22;9585;51.018;4.282;2024-03-17T11:24:01;15.40;99.90
18906;DHT22;9585;51.018;4.282;2024-03-17T11:26:32;15.40;99.90
18906;DHT22;9585;51.018;4.282;2024-03-17T11:29:01;15.30;99.90
18906;DHT22;9585;51.018;4.282;2024-03-17T11:31:40;15.50;99.90
18906;DHT22;9585;51.018;4.282;2024-03-17T11:34:26;15.60;99.90
18906;DHT22;9585;51.018;4.282;2024-03-17T11:36:56;15.70;99.90
18906;DHT22;9585;51.018;4.282;2024-03-17T11:39:53;16.10;99.90
18906;DHT22;9585;51.018;4.282;2024-03-17T11:42:27;16.40;99.90
18906;DHT22;9585;51.018;4.282;2024-03-17T11:45:05;16.40;99.90
18906;DHT22;9585;51.018;4.282;2024-03-17T11:47:43;16.70;99.90
18906;DHT22;9585;51.018;4.282;2024-03-17T11:50:15;16.60;99.90
18906;DHT22;9585;51.018;4.282;2024-03-17T11:52:44;16.90;99.90
18906;DHT22;9585;51.018;4.282;2024-03-17T11:55:19;17.10;99.90
18906;DHT22;9585;51.018;4.282;2024-03-17T11:57:57;17.30;99.90
18906;DHT22;9585;51.018;4.282;2024-03-17T12:00:40;17.60;99.90
18906;DHT22;9585;51.018;4.282;2024-03-17T12:03:14;17.70;99.90
18906;DHT22;9585;51.018;4.282;2024-03-17T12:05:44;17.60;99.90
18906;DHT22;9585;51.018;4.282;2024-03-17T12:08:26;17.50;99.90
18906;DHT22;9585;51.018;4.282;2024-03-17T12:11:28;17.30;99.90
18906;DHT22;9585;51.018;4.282;2024-03-17T12:14:16;17.30;99.90
18906;DHT22;9585;51.018;4.282;2024-03-17T12:17:03;17.70;99.90
18906;DHT22;9585;51.018;4.282;2024-03-17T12:19:32;17.60;99.90
18906;DHT22;9585;51.018;4.282;2024-03-17T12:22:23;17.70;99.90
18906;DHT22;9585;51.018;4.282;2024-03-17T12:25:20;17.70;99.90
18906;DHT22;9585;51.018;4.282;2024-03-17T12:27:49;17.50;99.90
18906;DHT22;9585;51.018;4.282;2024-03-17T12:30:18;17.50;99.90
18906;DHT22;9585;51.018;4.282;2024-03-17T12:33:07;17.70;99.90
18906;DHT22;9585;51.018;4.282;2024-03-17T12:36:12;17.70;99.90
18906;DHT22;9585;51.018;4.282;2024-03-17T12:38:58;17.40;99.90
18906;DHT22;9585;51.018;4.282;2024-03-17T12:42:09;17.20;99.90
18906;DHT22;9585;51.018;4.282;2024-03-17T12:44:40;17.20;99.90
18906;DHT22;9585;51.018;4.282;2024-03-17T12:47:15;17.10;99.90
18906;DHT22;9585;51.018;4.282;2024-03-17T12:49:47;17.20;99.90
18906;DHT22;9585;51.018;4.282;2024-03-17T12:55:09;17.30;99.90
18906;DHT22;9585;51.018;4.282;2024-03-17T12:58:15;17.40;99.90
18906;DHT22;9585;51.018;4.282;2024-03-17T13:01:00;17.10;99.90
18906;DHT22;9585;51.018;4.282;2024-03-17T13:03:29;17.10;99.90
18906;DHT22;9585;51.018;4.282;2024-03-17T13:06:22;17.20;99.90
18906;DHT22;9585;51.018;4.282;2024-03-17T13:09:04;17.30;99.90
18906;DHT22;9585;51.018;4.282;2024-03-17T13:11:36;17.00;99.90
18906;DHT22;9585;51.018;4.282;2024-03-17T13:14:05;17.10;99.90
18906;DHT22;9585;51.018;4.282;2024-03-17T13:16:36;17.00;99.90
18906;DHT22;9585;51.018;4.282;2024-03-17T13:19:05;17.20;99.90
18906;DHT22;9585;51.018;4.282;2024-03-17T13:21:35;17.20;99.90
18906;DHT22;9585;51.018;4.282;2024-03-17T13:27:32;17.40;99.90
18906;DHT22;9585;51.018;4.282;2024-03-17T13:30:05;17.40;99.90
18906;DHT22;9585;51.018;4.282;2024-03-17T13:32:35;17.30;99.90
18906;DHT22;9585;51.018;4.282;2024-03-17T13:35:05;17.30;99.90
18906;DHT22;9585;51.018;4.282;2024-03-17T13:37:34;17.40;99.90
18906;DHT22;9585;51.018;4.282;2024-03-17T13:40:04;17.50;99.90
18906;DHT22;9585;51.018;4.282;2024-03-17T13:42:39;17.50;99.90
18906;DHT22;9585;51.018;4.282;2024-03-17T13:45:13;17.40;99.90
18906;DHT22;9585;51.018;4.282;2024-03-17T13:48:00;17.30;99.90
18906;DHT22;9585;51.018;4.282;2024-03-17T13:50:40;17.30;99.90
18906;DHT22;9585;51.018;4.282;2024-03-17T13:53:11;16.80;99.90
18906;DHT22;9585;51.018;4.282;2024-03-17T13:55:43;16.80;99.90
18906;DHT22;9585;51.018;4.282;2024-03-17T13:58:12;16.80;99.90
18906;DHT22;9585;51.018;4.282;2024-03-17T14:00:48;17.00;99.90
18906;DHT22;9585;51.018;4.282;2024-03-17T14:03:31;16.90;99.90
18906;DHT22;9585;51.018;4.282;2024-03-17T14:10:11;16.70;99.90
18906;DHT22;9585;51.018;4.282;2024-03-17T14:17:09;16.80;99.90
18906;DHT22;9585;51.018;4.282;2024-03-17T14:26:21;16.90;99.90
18906;DHT22;9585;51.018;4.282;2024-03-17T14:28:49;16.80;99.90
18906;DHT22;9585;51.018;4.282;2024-03-17T14:31:17;16.80;99.90
18906;DHT22;9585;51.018;4.282;2024-03-17T14:33:46;16.70;99.90
18906;DHT22;9585;51.018;4.282;2024-03-17T14:36:14;16.40;99.90
18906;DHT22;9585;51.018;4.282;2024-03-17T14:38:42;16.40;99.90
18906;DHT22;9585;51.018;4.282;2024-03-17T14:41:10;16.30;99.90
18906;DHT22;9585;51.018;4.282;2024-03-17T14:43:38;16.20;99.90
18906;DHT22;9585;51.018;4.282;2024-03-17T14:46:06;16.20;99.90
18906;DHT22;9585;51.018;4.282;2024-03-17T14:48:36;16.10;99.90
18906;DHT22;9585;51.018;4.282;2024-03-17T14:51:06;16.10;99.90
18906;DHT22;9585;51.018;4.282;2024-03-17T14:53:34;16.20;99.90
18906;DHT22;9585;51.018;4.282;2024-03-17T14:56:08;16.30;99.90
18906;DHT22;9585;51.018;4.282;2024-03-17T14:58:36;16.30;99.90
18906;DHT22;9585;51.018;4.282;2024-03-17T15:01:03;16.10;99.90
18906;DHT22;9585;51.018;4.282;2024-03-17T15:03:31;15.90;99.90
18906;DHT22;9585;51.018;4.282;2024-03-17T15:05:59;15.90;99.90
18906;DHT22;9585;51.018;4.282;2024-03-17T15:08:28;15.70;99.90
18906;DHT22;9585;51.018;4.282;2024-03-17T15:10:56;15.60;99.90
18906;DHT22;9585;51.018;4.282;2024-03-17T15:13:24;15.70;99.90
18906;DHT22;9585;51.018;4.282;2024-03-17T15:15:53;15.80;99.90
18906;DHT22;9585;51.018;4.282;2024-03-17T15:18:20;15.70;99.90
18906;DHT22;9585;51.018;4.282;2024-03-17T15:20:52;15.60;99.90
18906;DHT22;9585;51.018;4.282;2024-03-17T15:23:20;15.50;99.90
18906;DHT22;9585;51.018;4.282;2024-03-17T15:25:50;15.60;99.90
18906;DHT22;9585;51.018;4.282;2024-03-17T15:28:17;15.50;99.90
18906;DHT22;9585;51.018;4.282;2024-03-17T15:30:45;15.40;99.90
18906;DHT22;9585;51.018;4.282;2024-03-17T15:33:12;15.50;99.90
18906;DHT22;9585;51.018;4.282;2024-03-17T15:35:40;15.30;99.90
18906;DHT22;9585;51.018;4.282;2024-03-17T15:38:09;15.20;99.90
18906;DHT22;9585;51.018;4.282;2024-03-17T15:40:37;15.20;99.90
18906;DHT22;9585;51.018;4.282;2024-03-17T15:43:06;15.10;99.90
18906;DHT22;9585;51.018;4.282;2024-03-17T15:45:35;15.10;99.90
18906;DHT22;9585;51.018;4.282;2024-03-17T15:48:04;15.00;99.90
18906;DHT22;9585;51.018;4.282;2024-03-17T15:50:32;14.90;99.90
18906;DHT22;9585;51.018;4.282;2024-03-17T15:53:01;14.90;99.90
18906;DHT22;9585;51.018;4.282;2024-03-17T15:55:29;14.90;99.90
18906;DHT22;9585;51.018;4.282;2024-03-17T15:57:57;14.90;99.90
18906;DHT22;9585;51.018;4.282;2024-03-17T16:00:26;15.00;99.90
18906;DHT22;9585;51.018;4.282;2024-03-17T16:02:54;14.80;99.90
18906;DHT22;9585;51.018;4.282;2024-03-17T16:05:22;14.70;99.90
18906;DHT22;9585;51.018;4.282;2024-03-17T16:07:50;14.60;99.90
18906;DHT22;9585;51.018;4.282;2024-03-17T16:10:20;14.60;99.90
18906;DHT22;9585;51.018;4.282;2024-03-17T16:12:49;14.40;99.90
18906;DHT22;9585;51.018;4.282;2024-03-17T16:15:17;14.40;99.90
18906;DHT22;9585;51.018;4.282;2024-03-17T16:17:48;14.20;99.90
18906;DHT22;9585;51.018;4.282;2024-03-17T16:23:09;13.60;99.90
18906;DHT22;9585;51.018;4.282;2024-03-17T16:25:37;13.60;99.90
18906;DHT22;9585;51.018;4.282;2024-03-17T16:28:08;13.50;99.90
18906;DHT22;9585;51.018;4.282;2024-03-17T16:30:37;13.40;99.90
18906;DHT22;9585;51.018;4.282;2024-03-17T16:33:06;13.40;99.90
18906;DHT22;9585;51.018;4.282;2024-03-17T16:35:34;13.40;99.90
18906;DHT22;9585;51.018;4.282;2024-03-17T16:38:02;13.40;99.90
18906;DHT22;9585;51.018;4.282;2024-03-17T16:40:30;13.20;99.90
18906;DHT22;9585;51.018;4.282;2024-03-17T16:42:59;13.20;99.90
18906;DHT22;9585;51.018;4.282;2024-03-17T16:45:28;13.30;99.90
18906;DHT22;9585;51.018;4.282;2024-03-17T16:47:56;13.30;99.90
18906;DHT22;9585;51.018;4.282;2024-03-17T16:50:25;13.30;99.90
18906;DHT22;9585;51.018;4.282;2024-03-17T16:52:53;13.20;99.90
18906;DHT22;9585;51.018;4.282;2024-03-17T16:55:21;13.20;99.90
18906;DHT22;9585;51.018;4.282;2024-03-17T16:57:49;13.20;99.90
18906;DHT22;9585;51.018;4.282;2024-03-17T17:00:17;13.20;99.90
18906;DHT22;9585;51.018;4.282;2024-03-17T17:02:45;13.10;99.90
18906;DHT22;9585;51.018;4.282;2024-03-17T17:05:13;13.10;99.90
18906;DHT22;9585;51.018;4.282;2024-03-17T17:07:43;13.10;99.90
18906;DHT22;9585;51.018;4.282;2024-03-17T17:10:13;13.10;99.90